Time;durP1;ratioP1;P1;durP2;ratioP2;P2;SDS_P1;SDS_P2;PMS_P1;PMS_P2;Temp;Humidity;BMP_temperature;BMP_pressure;BME280_temperature;BME280_humidity;BME280_pressure;Samples;Min_cycle;Max_cycle;Signal;HPM_P1;HPM_P2
2022/06/06 00:01:47;;;;;;;39.03;23.20;;;;;;;15.98;91.98;101416.78;5029273;28;20033;-82
2022/06/06 00:04:14;;;;;;;39.30;22.50;;;;;;;15.97;91.57;101407.28;5027388;28;20200;-82
2022/06/06 00:06:40;;;;;;;38.75;21.65;;;;;;;15.96;91.08;101403.81;5025049;28;20595;-81
2022/06/06 00:09:07;;;;;;;39.90;22.25;;;;;;;15.95;91.42;101414.13;5026209;28;20049;-82
2022/06/06 00:11:33;;;;;;;37.38;22.42;;;;;;;15.93;91.63;101402.88;5026311;28;20160;-81
2022/06/06 00:13:59;;;;;;;36.08;21.00;;;;;;;15.90;91.83;101414.09;5026971;28;20034;-80
2022/06/06 00:16:24;;;;;;;31.80;20.65;;;;;;;15.90;91.49;101413.22;5031136;28;20037;-80
2022/06/06 00:18:50;;;;;;;36.25;20.30;;;;;;;15.95;91.32;101419.31;5024055;28;20091;-79
2022/06/06 00:21:16;;;;;;;35.40;20.23;;;;;;;15.91;91.50;101412.38;5030697;28;20094;-81
2022/06/06 00:23:41;;;;;;;35.63;20.48;;;;;;;15.86;92.35;101414.88;5025096;28;20025;-82
2022/06/06 00:26:10;;;;;;;36.20;20.25;;;;;;;15.91;91.24;101409.78;5030725;28;20112;-79
2022/06/06 00:28:36;;;;;;;31.63;19.52;;;;;;;15.92;91.48;101408.91;5021663;28;20107;-80
2022/06/06 00:34:48;;;;;;;33.35;21.02;;;;;;;15.93;91.33;101405.47;5028360;28;20029;-80
2022/06/06 00:36:36;;;;;;;31.58;20.05;;;;;;;15.93;91.38;101395.09;5028950;28;20510;-80
2022/06/06 00:39:03;;;;;;;33.22;20.48;;;;;;;15.93;91.92;101395.09;5029441;28;20033;-79
2022/06/06 00:41:29;;;;;;;31.85;19.90;;;;;;;15.90;92.58;101406.31;5023429;28;20037;-80
2022/06/06 00:44:05;;;;;;;34.40;20.48;;;;;;;15.93;92.47;101398.56;5012579;28;20078;-80
2022/06/06 00:46:34;;;;;;;35.78;20.38;;;;;;;15.88;92.64;101396.75;5031134;28;20992;-80
2022/06/06 00:49:01;;;;;;;32.55;20.80;;;;;;;15.87;93.14;101398.47;5032576;28;20020;-80
2022/06/06 00:51:26;;;;;;;37.40;21.50;;;;;;;15.84;93.56;101389.78;5011077;28;20052;-80
2022/06/06 00:53:55;;;;;;;36.40;21.30;;;;;;;15.84;93.66;101395.84;5031579;28;20121;-80
2022/06/06 00:56:23;;;;;;;37.17;22.50;;;;;;;15.82;93.56;101400.13;5030944;28;20402;-81
2022/06/06 00:59:03;;;;;;;41.35;22.80;;;;;;;15.81;94.19;101388.00;5022868;28;20116;-80
2022/06/06 01:01:31;;;;;;;35.35;22.13;;;;;;;15.81;94.38;101395.78;5015286;28;20063;-79
2022/06/06 01:04:01;;;;;;;37.28;22.25;;;;;;;15.80;93.91;101391.47;5026989;28;20055;-79
2022/06/06 01:06:30;;;;;;;38.40;22.88;;;;;;;15.82;94.34;101390.63;5024054;28;20145;-81
2022/06/06 01:08:58;;;;;;;35.65;23.63;;;;;;;15.81;94.88;101395.78;5024418;28;20112;-79
2022/06/06 01:11:23;;;;;;;34.20;21.60;;;;;;;15.81;94.61;101396.66;5026684;28;20037;-79
2022/06/06 01:13:49;;;;;;;34.38;21.77;;;;;;;15.78;94.45;101388.84;5024139;28;20042;-79
2022/06/06 01:16:17;;;;;;;35.72;22.55;;;;;;;15.82;94.41;101382.84;5024685;28;20676;-80
2022/06/06 01:18:58;;;;;;;34.50;21.70;;;;;;;15.82;94.79;101388.03;5029623;28;20121;-79
2022/06/06 01:21:46;;;;;;;33.28;21.38;;;;;;;15.81;94.99;101388.00;5029025;28;20041;-79
2022/06/06 01:24:32;;;;;;;35.00;22.50;;;;;;;15.85;94.68;101387.22;5024590;28;20029;-79
2022/06/06 01:27:33;;;;;;;39.83;23.27;;;;;;;15.90;94.50;101392.47;5028322;28;20037;-79
2022/06/06 01:30:04;;;;;;;36.45;23.35;;;;;;;15.83;95.30;101388.91;5031603;28;20036;-80
2022/06/06 01:32:38;;;;;;;41.05;23.73;;;;;;;15.85;95.03;101383.75;5027587;28;20467;-80
2022/06/06 01:35:04;;;;;;;40.17;24.58;;;;;;;15.83;95.26;101394.06;5022488;28;20029;-79
2022/06/06 01:37:33;;;;;;;40.38;25.98;;;;;;;15.82;95.34;101392.34;5034023;28;20061;-81
2022/06/06 01:40:02;;;;;;;41.80;25.43;;;;;;;15.80;95.73;101394.06;5031617;28;20025;-81
2022/06/06 01:42:46;;;;;;;41.88;25.38;;;;;;;15.86;95.37;101394.16;5031969;28;20035;-81
2022/06/06 01:45:23;;;;;;;43.00;26.67;;;;;;;15.85;95.54;101396.72;5026467;28;20036;-80
2022/06/06 01:47:57;;;;;;;44.75;26.67;;;;;;;15.79;95.60;101394.91;5034592;28;20147;-81
2022/06/06 01:50:23;;;;;;;45.72;27.77;;;;;;;15.80;95.90;101387.13;5027315;28;20095;-81
2022/06/06 01:53:09;;;;;;;49.72;28.88;;;;;;;15.82;95.93;101385.44;5024665;28;20029;-80
2022/06/06 01:55:37;;;;;;;54.78;31.83;;;;;;;15.83;96.20;101386.31;5033021;28;20040;-81
2022/06/06 01:58:08;;;;;;;52.70;31.48;;;;;;;15.80;96.43;101381.97;5025939;28;20483;-80
2022/06/06 02:00:36;;;;;;;54.67;33.55;;;;;;;15.81;95.96;101396.66;5029871;28;20052;-81
2022/06/06 02:03:02;;;;;;;53.47;32.45;;;;;;;15.76;96.58;101380.16;5026209;28;20132;-81
2022/06/06 02:05:28;;;;;;;55.50;32.78;;;;;;;15.80;95.60;101388.88;5030533;28;20068;-81
2022/06/06 02:07:54;;;;;;;59.67;34.13;;;;;;;15.80;96.00;101379.34;5028130;28;20153;-80
2022/06/06 02:10:20;;;;;;;54.95;32.63;;;;;;;15.81;96.07;101378.50;5007201;28;20488;-80
2022/06/06 02:12:46;;;;;;;56.42;33.05;;;;;;;15.81;96.34;101378.50;5024438;28;20034;-80
2022/06/06 02:15:14;;;;;;;56.55;33.05;;;;;;;15.84;96.55;101364.72;5032066;28;20033;-80
2022/06/06 02:17:40;;;;;;;51.70;32.78;;;;;;;15.83;96.41;101362.97;5026251;28;20024;-80
2022/06/06 02:20:07;;;;;;;52.20;32.95;;;;;;;15.80;96.41;101358.63;5026871;28;20366;-80
2022/06/06 02:22:33;;;;;;;54.53;33.05;;;;;;;15.79;96.62;101348.22;5031972;28;20049;-81
2022/06/06 02:24:59;;;;;;;54.78;33.85;;;;;;;15.80;96.57;101355.16;5029359;28;22082;-80
2022/06/06 02:27:24;;;;;;;54.72;33.47;;;;;;;15.79;95.96;101350.81;5026255;28;20463;-81
2022/06/06 02:29:50;;;;;;;51.22;32.47;;;;;;;15.81;96.49;101359.47;5028646;28;20036;-81
2022/06/06 02:32:15;;;;;;;52.80;33.47;;;;;;;15.83;96.40;101360.38;5027464;28;20520;-81
2022/06/06 02:34:41;;;;;;;50.88;33.05;;;;;;;15.78;96.96;101359.47;5029670;28;20412;-81
2022/06/06 02:37:06;;;;;;;54.05;33.67;;;;;;;15.77;96.08;101353.41;5024770;28;20771;-80
2022/06/06 02:39:32;;;;;;;56.60;33.97;;;;;;;15.79;96.91;101358.59;5028572;28;20047;-81
2022/06/06 02:41:57;;;;;;;51.25;33.15;;;;;;;15.78;96.53;101359.47;5031197;28;20028;-80
2022/06/06 02:44:23;;;;;;;50.88;33.63;;;;;;;15.76;96.12;101355.94;5018868;28;20365;-80
2022/06/06 02:46:49;;;;;;;50.72;33.00;;;;;;;15.76;96.36;101355.94;5009384;28;20514;-80
2022/06/06 02:49:15;;;;;;;49.88;32.75;;;;;;;15.75;96.86;101369.78;5029474;28;20147;-81
2022/06/06 02:51:40;;;;;;;49.08;32.03;;;;;;;15.73;96.45;101371.47;5029456;28;20053;-81
2022/06/06 02:54:06;;;;;;;51.60;33.00;;;;;;;15.72;96.62;101360.25;5029784;28;20040;-80
2022/06/06 02:56:31;;;;;;;56.00;33.58;;;;;;;15.72;96.54;101365.41;5030987;28;20029;-82
2022/06/06 02:59:01;;;;;;;54.40;32.78;;;;;;;15.68;95.92;101360.16;5029396;28;20037;-80
2022/06/06 03:01:27;;;;;;;53.22;33.28;;;;;;;15.63;95.41;101348.84;5022881;28;20037;-79
2022/06/06 03:03:53;;;;;;;60.10;35.22;;;;;;;15.71;95.79;101349.81;5025782;28;20028;-80
2022/06/06 03:06:32;;;;;;;62.47;33.83;;;;;;;15.70;96.06;101359.31;5025983;28;20059;-80
2022/06/06 03:09:23;;;;;;;60.00;34.80;;;;;;;15.73;95.66;101361.09;5030782;28;20044;-81
2022/06/06 03:11:54;;;;;;;64.40;36.67;;;;;;;15.67;95.46;101355.81;5030715;28;20052;-81
2022/06/06 03:14:39;;;;;;;63.42;34.90;;;;;;;15.68;96.12;101355.84;5029216;28;20038;-81
2022/06/06 03:21:02;;;;;;;63.65;35.42;;;;;;;15.74;94.92;101355.06;5028553;28;20079;-81
2022/06/06 03:23:41;;;;;;;59.92;34.60;;;;;;;15.72;94.97;101369.75;4984362;28;20045;-82
2022/06/06 03:26:12;;;;;;;59.97;32.95;;;;;;;15.64;95.58;101367.00;5023242;28;20033;-80
2022/06/06 03:28:44;;;;;;;56.90;33.20;;;;;;;15.65;95.51;101367.88;5032431;28;20130;-81
2022/06/06 03:31:27;;;;;;;61.10;34.78;;;;;;;15.68;95.51;101373.13;5023047;28;20480;-81
2022/06/06 03:34:00;;;;;;;55.05;32.80;;;;;;;15.62;95.04;101375.59;5027374;28;20041;-81
2022/06/06 03:36:49;;;;;;;56.75;32.83;;;;;;;15.64;94.77;101369.59;5021778;28;20029;-81
2022/06/06 03:39:31;;;;;;;52.33;31.10;;;;;;;15.65;94.29;101379.16;5026171;28;20030;-81
2022/06/06 03:42:23;;;;;;;52.88;31.05;;;;;;;15.62;94.25;101370.41;5029498;28;20116;-81
2022/06/06 03:45:26;;;;;;;51.45;32.95;;;;;;;15.65;94.07;101370.47;5030034;28;20468;-81
2022/06/06 03:48:16;;;;;;;56.05;31.33;;;;;;;15.63;94.21;101364.41;5022830;28;20116;-81
2022/06/06 03:51:19;;;;;;;53.70;29.23;;;;;;;15.62;93.91;101373.00;5031858;28;20049;-81
2022/06/06 03:54:12;;;;;;;47.42;29.33;;;;;;;15.61;93.60;101376.44;5024571;28;20376;-81
2022/06/06 03:56:59;;;;;;;46.55;28.75;;;;;;;15.61;93.75;101376.44;5029709;28;20047;-81
2022/06/06 03:59:28;;;;;;;45.92;28.75;;;;;;;15.54;93.15;101368.56;5029066;28;20420;-80
2022/06/06 04:01:58;;;;;;;45.80;28.38;;;;;;;15.53;93.37;101382.38;5023565;28;20396;-81
2022/06/06 04:04:24;;;;;;;45.22;27.85;;;;;;;15.51;92.66;101381.47;5032473;28;20062;-81
2022/06/06 04:06:55;;;;;;;44.17;26.38;;;;;;;15.54;92.62;101383.25;5029095;28;20492;-80
2022/06/06 04:09:21;;;;;;;44.03;26.38;;;;;;;15.51;93.46;101381.47;5027547;28;20035;-81
2022/06/06 04:11:59;;;;;;;43.33;26.73;;;;;;;15.53;92.69;101389.25;5027508;28;20029;-82
2022/06/06 04:14:34;;;;;;;42.05;25.75;;;;;;;15.51;92.88;101383.19;5030441;28;20031;-81
2022/06/06 04:17:37;;;;;;;40.20;25.88;;;;;;;15.50;92.21;101386.63;5027569;28;20036;-81
2022/06/06 04:20:24;;;;;;;38.67;24.40;;;;;;;15.51;91.68;101386.66;5029908;28;20056;-81
2022/06/06 04:23:22;;;;;;;42.20;23.70;;;;;;;15.47;91.42;101394.34;5031959;28;20045;-81
2022/06/06 04:26:00;;;;;;;36.97;22.10;;;;;;;15.47;91.37;101399.53;5019269;28;20025;-81
2022/06/06 04:28:44;;;;;;;33.88;22.08;;;;;;;15.44;91.16;101400.34;5026708;28;20033;-80
2022/06/06 04:31:51;;;;;;;32.70;21.98;;;;;;;15.47;90.44;101405.59;5030266;28;20492;-80
2022/06/06 04:34:22;;;;;;;32.90;20.15;;;;;;;15.36;89.95;101404.56;5022283;28;20411;-80
2022/06/06 04:37:04;;;;;;;33.88;19.77;;;;;;;15.32;89.63;101404.47;5024193;28;20056;-80
2022/06/06 04:39:48;;;;;;;27.15;17.88;;;;;;;15.37;89.65;101405.41;5021804;28;20107;-81
2022/06/06 04:42:30;;;;;;;30.38;19.00;;;;;;;15.34;89.16;101405.34;5029963;28;20033;-80
2022/06/06 04:45:07;;;;;;;31.30;19.17;;;;;;;15.29;88.74;101407.88;5023694;28;20022;-80
2022/06/06 04:47:38;;;;;;;28.15;18.35;;;;;;;15.24;89.44;101406.94;5027015;28;20033;-81
2022/06/06 04:50:07;;;;;;;29.60;18.85;;;;;;;15.17;89.30;101405.94;5027232;28;20111;-82
2022/06/06 04:52:36;;;;;;;29.00;19.45;;;;;;;15.16;88.54;101414.53;5023296;28;20033;-81
2022/06/06 04:55:05;;;;;;;28.08;18.15;;;;;;;15.19;88.88;101411.16;5020898;28;20063;-80
2022/06/06 04:57:31;;;;;;;28.07;18.83;;;;;;;15.11;87.96;101412.75;5025332;28;20021;-80
2022/06/06 04:59:58;;;;;;;28.95;19.17;;;;;;;15.11;88.25;101418.78;5014372;28;20375;-80
2022/06/06 05:02:25;;;;;;;27.40;18.85;;;;;;;15.10;87.89;101418.75;5029158;28;20057;-80
2022/06/06 05:04:50;;;;;;;30.55;19.48;;;;;;;15.07;87.44;101410.94;5029551;28;20036;-80
2022/06/06 05:07:43;;;;;;;29.98;19.75;;;;;;;15.17;87.98;101410.25;5022862;28;20037;-80
2022/06/06 05:10:24;;;;;;;32.53;21.00;;;;;;;15.15;87.36;101409.34;5029305;28;20114;-81
2022/06/06 05:13:23;;;;;;;26.67;19.45;;;;;;;15.13;86.70;101417.09;5027144;28;20048;-80
2022/06/06 05:16:06;;;;;;;;;;;;;;;15.31;86.95;101419.13;5029847;28;20036;-81
2022/06/06 05:18:53;;;;;;;27.00;19.63;;;;;;;15.26;87.54;101411.28;5028733;28;20449;-80
2022/06/06 05:21:38;;;;;;;26.33;20.83;;;;;;;15.24;86.33;101412.13;5028477;28;20045;-80
2022/06/06 05:24:22;;;;;;;27.63;20.98;;;;;;;15.31;87.02;101419.13;5033071;28;20109;-80
2022/06/06 05:26:50;;;;;;;27.10;20.70;;;;;;;15.25;86.30;101414.72;5026951;28;20100;-80
2022/06/06 05:29:34;;;;;;;28.13;21.75;;;;;;;15.30;85.71;101414.81;5021675;28;20111;-80
2022/06/06 05:32:18;;;;;;;26.65;20.65;;;;;;;15.32;86.19;101417.41;5022503;28;20620;-81
2022/06/06 05:35:16;;;;;;;25.70;20.65;;;;;;;15.34;85.82;101426.94;5014927;28;20034;-79
2022/06/06 05:38:12;;;;;;;26.83;19.42;;;;;;;15.28;85.22;101424.25;5024992;28;20052;-80
2022/06/06 05:40:43;;;;;;;25.50;19.85;;;;;;;15.25;85.77;101430.25;5026631;28;20078;-80
2022/06/06 05:43:26;;;;;;;25.95;19.05;;;;;;;15.30;84.79;101425.16;5024598;28;20088;-80
2022/06/06 05:46:18;;;;;;;26.80;19.58;;;;;;;15.27;84.56;101430.28;5023776;28;20134;-81
2022/06/06 05:49:11;;;;;;;25.27;19.75;;;;;;;15.30;85.40;101432.94;5020681;28;20140;-81
2022/06/06 05:51:46;;;;;;;25.75;19.02;;;;;;;15.31;85.88;101428.63;5025363;28;20052;-80
2022/06/06 05:54:20;;;;;;;21.80;18.10;;;;;;;15.30;84.55;101432.94;5028512;28;20414;-80
2022/06/06 05:57:12;;;;;;;20.60;17.15;;;;;;;15.31;83.66;101432.09;5027471;28;20518;-80
2022/06/06 05:59:50;;;;;;;21.20;17.60;;;;;;;15.27;84.54;101432.88;5021434;28;20032;-81
2022/06/06 06:02:30;;;;;;;20.50;15.23;;;;;;;15.32;83.58;101435.56;5029418;28;20036;-80
2022/06/06 06:05:41;;;;;;;19.95;14.13;;;;;;;15.35;83.80;101427.81;5027273;28;20071;-80
2022/06/06 06:08:38;;;;;;;19.45;15.38;;;;;;;15.43;83.96;101434.91;5014564;28;20037;-80
2022/06/06 06:11:18;;;;;;;18.83;13.98;;;;;;;15.50;83.15;101430.69;5030768;28;20036;-80
2022/06/06 06:14:07;;;;;;;17.23;12.30;;;;;;;15.51;81.62;101433.31;5029096;28;20076;-79
2022/06/06 06:16:34;;;;;;;;;;;;;;;15.72;83.13;101438.03;5026062;28;20065;-80
2022/06/06 06:19:24;;;;;;;13.98;10.90;;;;;;;15.72;81.46;101444.94;5032366;28;20857;-80
2022/06/06 06:21:55;;;;;;;12.38;10.00;;;;;;;15.71;80.26;101443.16;5025920;28;20124;-80
2022/06/06 06:24:35;;;;;;;15.73;10.65;;;;;;;15.78;81.65;101439.84;5027678;28;20726;-80
2022/06/06 06:27:03;;;;;;;13.45;9.93;;;;;;;15.80;81.14;101453.69;5034362;28;20040;-80
2022/06/06 06:29:29;;;;;;;14.40;10.18;;;;;;;15.72;79.91;101455.28;5030359;28;20087;-80
2022/06/06 06:32:18;;;;;;;15.80;11.10;;;;;;;15.84;80.97;101442.53;5025607;28;20029;-80
2022/06/06 06:34:55;;;;;;;;;;;;;;;15.99;80.83;101447.94;5029536;28;20032;-80
2022/06/06 06:37:29;;;;;;;17.00;10.68;;;;;;;15.88;79.61;101454.66;5027911;28;19916;-80
2022/06/06 06:40:16;;;;;;;14.45;10.15;;;;;;;15.94;80.38;101464.28;5030603;28;20048;-82
2022/06/06 06:43:12;;;;;;;13.77;9.88;;;;;;;16.04;79.72;101469.63;5024086;28;20059;-80
2022/06/06 06:45:44;;;;;;;11.52;8.60;;;;;;;16.05;79.21;101467.91;5034149;28;20033;-80
2022/06/06 06:48:12;;;;;;;10.73;7.75;;;;;;;16.09;80.62;101475.78;5027797;28;20017;-81
2022/06/06 06:50:46;;;;;;;11.80;7.40;;;;;;;16.19;78.07;101473.28;5028642;28;20026;-79
2022/06/06 06:53:47;;;;;;;11.05;7.38;;;;;;;16.23;78.49;101477.69;5033291;28;20711;-81
2022/06/06 06:56:31;;;;;;;10.68;6.95;;;;;;;16.27;78.93;101469.97;5030177;28;20027;-80
2022/06/06 06:59:22;;;;;;;11.15;6.43;;;;;;;16.39;78.78;101471.88;5038773;28;20032;-80
2022/06/06 07:11:13;;;;;;;11.93;5.57;;;;;;;16.69;76.21;101470.53;5027109;28;20045;-80
2022/06/06 07:13:39;;;;;;;8.65;5.07;;;;;;;16.77;75.74;101487.13;5029873;28;20140;-80
2022/06/06 07:16:19;;;;;;;6.35;4.13;;;;;;;16.76;75.21;101485.38;5020912;28;20140;-79
2022/06/06 07:18:49;;;;;;;5.75;3.80;;;;;;;16.83;72.30;101476.81;5027035;28;20033;-80
2022/06/06 07:21:16;;;;;;;6.13;3.80;;;;;;;16.84;72.77;101478.53;5028209;28;20081;-80
2022/06/06 07:23:43;;;;;;;7.60;3.42;;;;;;;16.84;72.96;101475.94;5012466;28;20030;-80
2022/06/06 07:26:12;;;;;;;4.47;3.05;;;;;;;16.83;71.88;101471.63;5023361;28;20026;-81
2022/06/06 07:28:37;;;;;;;4.88;2.90;;;;;;;16.85;70.32;101472.50;5027295;28;20072;-80
2022/06/06 07:31:37;;;;;;;6.32;3.40;;;;;;;16.96;73.35;101477.81;5026078;28;20033;-79
2022/06/06 07:34:30;;;;;;;7.28;3.00;;;;;;;17.09;72.36;101480.56;5023950;28;20025;-79
2022/06/06 07:37:07;;;;;;;5.03;2.65;;;;;;;17.13;70.67;101481.47;5021645;28;20026;-75
2022/06/06 07:39:50;;;;;;;3.42;2.70;;;;;;;17.25;71.49;101491.16;5026148;28;20037;-74
2022/06/06 07:42:56;;;;;;;5.57;2.85;;;;;;;17.35;71.67;101485.16;5028692;28;20061;-75
2022/06/06 07:45:30;;;;;;;6.75;2.50;;;;;;;17.34;70.08;101488.63;5026435;28;20018;-73
2022/06/06 07:48:25;;;;;;;4.32;2.50;;;;;;;17.34;69.88;101489.50;5023420;28;20404;-73
2022/06/06 07:50:50;;;;;;;3.15;2.42;;;;;;;17.34;68.51;101502.50;5027054;28;21044;-73
2022/06/06 07:53:44;;;;;;;5.35;2.40;;;;;;;17.40;68.54;101509.47;5022942;28;20065;-74
2022/06/06 07:56:36;;;;;;;5.15;2.30;;;;;;;17.41;69.19;101503.41;5024823;28;20400;-74
2022/06/06 07:59:26;;;;;;;7.03;2.75;;;;;;;17.47;69.38;101503.47;5027764;28;20082;-75
2022/06/06 08:02:16;;;;;;;5.00;2.70;;;;;;;17.43;68.99;101499.13;5022084;28;20030;-75
2022/06/06 08:05:20;;;;;;;7.13;2.70;;;;;;;17.36;68.92;101495.59;5028570;28;20491;-75
2022/06/06 08:08:08;;;;;;;5.53;2.13;;;;;;;17.42;69.31;101489.59;5025343;28;20029;-75
2022/06/06 08:10:41;;;;;;;3.83;2.10;;;;;;;17.29;66.54;101501.59;5026403;28;20045;-75
2022/06/06 08:13:24;;;;;;;5.40;2.58;;;;;;;17.21;68.78;101497.16;5028606;28;20037;-75
2022/06/06 08:16:02;;;;;;;3.92;2.33;;;;;;;17.26;69.24;101496.34;5025923;28;21068;-75
2022/06/06 08:18:39;;;;;;;4.97;2.28;;;;;;;17.15;68.50;101495.34;5021927;28;20071;-76
2022/06/06 08:21:46;;;;;;;4.72;2.20;;;;;;;17.16;68.46;101495.38;5030157;28;20186;-75
2022/06/06 08:24:39;;;;;;;3.42;2.33;;;;;;;17.08;68.99;101494.41;5025655;28;20037;-75
2022/06/06 08:27:09;;;;;;;3.95;2.47;;;;;;;17.02;70.32;101498.69;5021989;28;20076;-75
2022/06/06 08:29:37;;;;;;;3.40;2.30;;;;;;;17.01;68.15;101492.59;5032723;28;20483;-72
2022/06/06 08:32:05;;;;;;;5.33;2.27;;;;;;;17.06;68.13;101493.53;5028178;28;20036;-78
2022/06/06 08:34:31;;;;;;;4.43;2.47;;;;;;;17.12;69.04;101490.13;5027922;28;20040;-74
2022/06/06 08:37:09;;;;;;;5.70;2.47;;;;;;;17.22;69.59;101486.75;5022462;28;20036;-72
2022/06/06 08:40:09;;;;;;;4.68;2.15;;;;;;;17.36;69.22;101482.59;5024857;28;20040;-74
2022/06/06 08:43:22;;;;;;;5.35;2.10;;;;;;;17.49;69.14;101469.72;5027104;28;20032;-75
2022/06/06 08:46:20;;;;;;;5.25;2.03;;;;;;;17.55;68.84;101475.84;5020652;28;20044;-73
2022/06/06 08:49:00;;;;;;;2.92;1.60;;;;;;;17.54;68.63;101463.72;5028404;28;20063;-73
2022/06/06 08:51:43;;;;;;;7.65;2.30;;;;;;;17.52;69.70;101470.59;5025140;28;20027;-76
2022/06/06 08:54:21;;;;;;;7.13;2.15;;;;;;;17.49;67.99;101468.00;5026933;28;20110;-75
2022/06/06 08:56:49;;;;;;;4.45;2.00;;;;;;;17.48;67.91;101461.06;5024418;28;20042;-79
2022/06/06 09:00:02;;;;;;;4.10;2.00;;;;;;;17.60;69.69;101458.56;5023308;28;20061;-77
2022/06/06 09:02:49;;;;;;;3.05;2.00;;;;;;;17.67;68.01;101462.94;4995943;28;20045;-79
2022/06/06 09:05:39;;;;;;;4.35;2.05;;;;;;;17.83;69.44;101458.75;5025330;28;20029;-79
2022/06/06 09:08:26;;;;;;;4.00;1.58;;;;;;;17.95;68.07;101473.59;5033564;28;20057;-80
2022/06/06 09:11:13;;;;;;;3.65;1.42;;;;;;;18.08;68.76;101467.63;5031125;28;20033;-78
2022/06/06 09:14:16;;;;;;;1.92;1.20;;;;;;;18.08;68.09;101466.75;5028405;28;20021;-79
2022/06/06 09:17:06;;;;;;;3.45;1.42;;;;;;;18.01;67.02;101471.03;5027151;28;20047;-77
2022/06/06 09:19:38;;;;;;;4.13;1.50;;;;;;;18.04;64.78;101468.47;5028432;28;20120;-79
2022/06/06 09:22:43;;;;;;;3.30;1.40;;;;;;;18.10;67.29;101463.31;5026618;28;20169;-78
2022/06/06 09:25:21;;;;;;;3.65;2.20;;;;;;;18.09;65.90;101458.09;5016010;28;20128;-78
2022/06/06 09:28:11;;;;;;;4.35;2.83;;;;;;;18.08;65.74;101461.53;5028205;28;20408;-78
2022/06/06 09:31:01;;;;;;;5.70;2.75;;;;;;;18.03;66.22;101451.13;5029881;28;20032;-78
2022/06/06 09:33:51;;;;;;;8.90;3.88;;;;;;;18.14;67.80;101446.88;5022872;28;20519;-77
2022/06/06 09:36:31;;;;;;;6.00;3.00;;;;;;;18.14;64.19;101440.75;5042181;28;20033;-79
2022/06/06 09:39:13;;;;;;;8.10;3.55;;;;;;;18.06;64.52;101438.13;5030383;28;20029;-78
2022/06/06 09:42:19;;;;;;;6.28;3.47;;;;;;;18.19;64.28;101434.72;5032817;28;20030;-77
2022/06/06 09:45:03;;;;;;;5.43;2.60;;;;;;;18.40;65.82;101431.38;5023232;28;20488;-78
2022/06/06 09:47:40;;;;;;;3.53;2.20;;;;;;;18.62;64.27;101426.25;5029219;28;20021;-78
2022/06/06 09:50:29;;;;;;;4.75;2.40;;;;;;;18.77;62.68;101433.31;5030144;28;20037;-77
2022/06/06 09:53:06;;;;;;;;;;;;;;;18.88;63.28;101434.22;5028450;28;20789;-78
2022/06/06 10:01:54;;;;;;;5.88;1.40;;;;;;;19.19;59.73;101425.59;5023338;28;20163;-74
2022/06/06 10:04:34;;;;;;;3.47;1.70;;;;;;;19.36;60.70;101425.63;5022882;28;20038;-77
2022/06/06 10:07:21;;;;;;;2.55;1.30;;;;;;;19.42;59.15;101419.53;5021537;28;20075;-77
2022/06/06 10:10:01;;;;;;;2.10;1.25;;;;;;;19.47;58.56;101423.00;5023304;28;20026;-74
2022/06/06 10:12:48;;;;;;;1.92;1.10;;;;;;;19.52;57.93;101416.03;5024206;28;20053;-79
2022/06/06 10:15:56;;;;;;;3.78;1.10;;;;;;;19.60;59.07;101414.34;5019696;28;20025;-76
2022/06/06 10:18:21;;;;;;;6.43;1.60;;;;;;;19.75;57.55;101409.09;5025800;28;20041;-77
2022/06/06 10:21:05;;;;;;;3.50;1.13;;;;;;;19.83;57.67;101419.53;5023552;28;20033;-76
2022/06/06 10:23:48;;;;;;;3.80;1.10;;;;;;;19.94;57.70;101409.06;5022240;28;20053;-77
2022/06/06 10:26:35;;;;;;;2.28;1.08;;;;;;;20.14;58.30;101395.97;5021208;28;20026;-74
2022/06/06 10:30:10;;;;;;;2.72;1.00;;;;;;;20.30;58.40;101393.31;5022903;28;20037;-74
2022/06/06 10:32:40;;;;;;;4.95;1.05;;;;;;;20.18;55.81;101395.97;5027386;28;20041;-73
2022/06/06 10:35:30;;;;;;;2.30;0.90;;;;;;;20.10;55.94;101405.56;5018086;28;20026;-73
2022/06/06 10:38:30;;;;;;;3.05;1.00;;;;;;;20.00;55.75;101401.25;5022534;28;20151;-75
2022/06/06 10:41:25;;;;;;;3.72;1.00;;;;;;;19.90;56.65;101408.25;5023116;28;20158;-74
2022/06/06 10:44:19;;;;;;;3.35;0.90;;;;;;;19.88;55.67;101407.34;5007997;28;20045;-73
2022/06/06 10:47:09;;;;;;;2.78;1.00;;;;;;;20.03;56.03;101409.06;5016961;28;20049;-75
2022/06/06 10:50:00;;;;;;;5.75;1.10;;;;;;;20.05;54.70;101394.28;5021317;28;20063;-73
2022/06/06 10:52:44;;;;;;;1.73;0.90;;;;;;;20.16;56.52;101399.47;5024286;28;21708;-75
2022/06/06 10:55:22;;;;;;;2.85;1.00;;;;;;;20.09;55.05;101403.84;5026044;28;20029;-73
2022/06/06 10:58:11;;;;;;;4.00;0.80;;;;;;;19.99;54.63;101417.78;5022361;28;20029;-75
2022/06/06 11:01:04;;;;;;;2.20;0.73;;;;;;;19.99;55.47;101412.56;5024656;28;20025;-74
2022/06/06 11:04:07;;;;;;;1.75;0.70;;;;;;;20.16;55.38;101408.16;5021216;28;20034;-70
2022/06/06 11:07:09;;;;;;;5.15;1.10;;;;;;;20.26;55.14;101399.44;5024565;28;20026;-70
2022/06/06 11:10:08;;;;;;;3.95;0.77;;;;;;;20.33;56.10;101393.31;5024422;28;20029;-72
2022/06/06 11:12:45;;;;;;;3.40;0.80;;;;;;;20.39;55.31;101391.56;5021969;28;20048;-72
2022/06/06 11:15:11;;;;;;;3.70;1.05;;;;;;;20.40;55.58;101390.69;5017762;28;20396;-71
2022/06/06 11:17:36;;;;;;;3.15;1.08;;;;;;;20.41;54.29;101381.97;5024797;28;20029;-70
2022/06/06 11:20:04;;;;;;;4.90;0.98;;;;;;;20.52;56.42;101372.38;5019752;28;20072;-70
2022/06/06 11:23:14;;;;;;;3.25;0.82;;;;;;;20.63;56.91;101373.19;5017389;28;20085;-70
2022/06/06 11:26:13;;;;;;;4.25;0.98;;;;;;;20.64;55.67;101377.53;5005952;28;20158;-69
2022/06/06 11:29:06;;;;;;;4.70;0.85;;;;;;;20.62;54.58;101382.75;5020078;28;20033;-69
2022/06/06 11:31:31;;;;;;;4.47;1.00;;;;;;;20.61;54.28;101378.41;5021568;28;20041;-69
2022/06/06 11:34:37;;;;;;;2.50;0.80;;;;;;;20.65;55.00;101379.28;5016533;28;20087;-70
2022/06/06 11:37:05;;;;;;;1.83;0.90;;;;;;;20.61;53.13;101372.31;5020957;28;20040;-73
2022/06/06 11:39:55;;;;;;;2.42;1.15;;;;;;;20.59;53.00;101376.69;5024084;28;20041;-72
2022/06/06 11:42:26;;;;;;;2.53;0.90;;;;;;;20.53;52.86;101369.75;5021145;28;20041;-71
2022/06/06 11:45:28;;;;;;;3.42;0.80;;;;;;;20.48;53.05;101361.06;5022971;28;20052;-70
2022/06/06 11:48:11;;;;;;;4.32;0.80;;;;;;;20.33;53.68;101376.78;5018337;28;20534;-72
2022/06/06 11:50:40;;;;;;;2.97;0.80;;;;;;;20.24;56.05;101384.63;5022341;28;20029;-73
2022/06/06 11:53:23;;;;;;;2.20;0.98;;;;;;;20.06;54.05;101381.22;5027031;28;20433;-72
2022/06/06 11:56:02;;;;;;;4.68;0.82;;;;;;;20.02;54.58;101382.09;5020245;28;20051;-72
2022/06/06 11:58:36;;;;;;;1.52;0.70;;;;;;;19.93;56.54;101399.50;5022351;28;20052;-71
2022/06/06 12:01:23;;;;;;;3.90;0.80;;;;;;;19.78;56.32;101410.88;5022058;28;20099;-71
2022/06/06 12:04:06;;;;;;;2.85;0.85;;;;;;;19.70;56.66;101403.03;5023552;28;20503;-70
2022/06/06 12:06:37;;;;;;;4.93;0.93;;;;;;;19.55;56.37;101405.63;5015980;28;20032;-75
2022/06/06 12:09:21;;;;;;;2.92;1.05;;;;;;;19.60;56.83;101408.28;5020936;28;20026;-75
2022/06/06 12:11:49;;;;;;;4.05;0.95;;;;;;;19.37;55.19;101406.50;5021043;28;20037;-75
2022/06/06 12:14:50;;;;;;;2.97;1.40;;;;;;;19.40;57.79;101395.16;5024436;28;20025;-74
2022/06/06 12:17:36;;;;;;;2.13;1.00;;;;;;;19.33;56.70;101406.47;5018893;28;20041;-74
2022/06/06 12:20:13;;;;;;;1.10;0.70;;;;;;;19.23;56.96;101416.00;5021523;28;20041;-74
2022/06/06 12:23:23;;;;;;;3.67;1.02;;;;;;;19.29;59.38;101421.22;5018091;28;20088;-74
2022/06/06 12:25:53;;;;;;;3.65;1.00;;;;;;;19.07;60.74;101406.44;4966411;28;20065;-74
2022/06/06 12:28:47;;;;;;;3.97;0.85;;;;;;;18.97;61.80;101411.63;5011917;28;20037;-74
2022/06/06 12:31:39;;;;;;;2.10;0.98;;;;;;;19.00;61.78;101401.22;5020748;28;20026;-74
2022/06/06 12:34:17;;;;;;;2.15;0.90;;;;;;;18.89;62.68;101392.50;5020678;28;20029;-74
2022/06/06 12:37:01;;;;;;;2.43;1.10;;;;;;;18.88;63.04;101398.59;5015823;28;20025;-75